sensor_id;sensor_type;location;lat;lon;timestamp;temperature;humidity
326;DHT22;150;52.352;14.058;2023-04-06T00:00:09;6.30;27.80
326;DHT22;150;52.352;14.058;2023-04-06T00:02:36;6.40;27.80
326;DHT22;150;52.352;14.058;2023-04-06T00:05:03;6.30;27.70
326;DHT22;150;52.352;14.058;2023-04-06T00:07:30;6.20;27.90
326;DHT22;150;52.352;14.058;2023-04-06T00:10:00;6.20;28.10
326;DHT22;150;52.352;14.058;2023-04-06T00:12:26;6.20;28.40
326;DHT22;150;52.352;14.058;2023-04-06T00:14:53;6.20;28.50
326;DHT22;150;52.352;14.058;2023-04-06T00:17:20;6.20;28.40
326;DHT22;150;52.352;14.058;2023-04-06T00:19:46;6.20;28.30
326;DHT22;150;52.352;14.058;2023-04-06T00:22:13;6.20;28.40
326;DHT22;150;52.352;14.058;2023-04-06T00:24:40;6.20;28.40
326;DHT22;150;52.352;14.058;2023-04-06T00:27:08;6.20;28.50
326;DHT22;150;52.352;14.058;2023-04-06T00:29:34;6.20;28.50
326;DHT22;150;52.352;14.058;2023-04-06T00:32:02;6.30;28.40
326;DHT22;150;52.352;14.058;2023-04-06T00:34:28;6.20;28.50
326;DHT22;150;52.352;14.058;2023-04-06T00:36:55;6.20;28.60
326;DHT22;150;52.352;14.058;2023-04-06T00:39:22;6.10;29.00
326;DHT22;150;52.352;14.058;2023-04-06T00:41:51;6.10;29.30
326;DHT22;150;52.352;14.058;2023-04-06T00:44:19;6.00;29.70
326;DHT22;150;52.352;14.058;2023-04-06T00:46:46;5.90;30.00
326;DHT22;150;52.352;14.058;2023-04-06T00:49:13;5.90;29.70
326;DHT22;150;52.352;14.058;2023-04-06T00:51:40;6.00;29.50
326;DHT22;150;52.352;14.058;2023-04-06T00:54:06;6.00;29.10
326;DHT22;150;52.352;14.058;2023-04-06T00:56:33;6.00;29.60
326;DHT22;150;52.352;14.058;2023-04-06T00:59:00;6.00;29.10
326;DHT22;150;52.352;14.058;2023-04-06T01:01:29;6.00;29.30
326;DHT22;150;52.352;14.058;2023-04-06T01:03:58;6.00;29.10
326;DHT22;150;52.352;14.058;2023-04-06T01:06:24;6.00;28.70
326;DHT22;150;52.352;14.058;2023-04-06T01:08:51;6.00;29.10
326;DHT22;150;52.352;14.058;2023-04-06T01:11:18;5.90;29.20
326;DHT22;150;52.352;14.058;2023-04-06T01:13:45;5.90;29.20
326;DHT22;150;52.352;14.058;2023-04-06T01:16:11;5.90;29.40
326;DHT22;150;52.352;14.058;2023-04-06T01:18:41;6.00;29.80
326;DHT22;150;52.352;14.058;2023-04-06T01:21:08;5.90;30.00
326;DHT22;150;52.352;14.058;2023-04-06T01:23:42;5.90;30.00
326;DHT22;150;52.352;14.058;2023-04-06T01:26:09;5.90;30.00
326;DHT22;150;52.352;14.058;2023-04-06T01:28:36;6.00;30.10
326;DHT22;150;52.352;14.058;2023-04-06T01:31:04;5.90;30.00
326;DHT22;150;52.352;14.058;2023-04-06T01:33:30;5.90;30.00
326;DHT22;150;52.352;14.058;2023-04-06T01:35:57;5.90;30.00
326;DHT22;150;52.352;14.058;2023-04-06T01:38:24;5.90;29.80
326;DHT22;150;52.352;14.058;2023-04-06T01:40:52;6.00;30.10
326;DHT22;150;52.352;14.058;2023-04-06T01:43:19;6.00;30.10
326;DHT22;150;52.352;14.058;2023-04-06T01:46:13;5.90;29.70
326;DHT22;150;52.352;14.058;2023-04-06T01:48:54;5.90;31.40
326;DHT22;150;52.352;14.058;2023-04-06T01:51:45;5.80;30.30
326;DHT22;150;52.352;14.058;2023-04-06T01:54:28;6.10;30.20
326;DHT22;150;52.352;14.058;2023-04-06T02:00:03;5.80;30.60
326;DHT22;150;52.352;14.058;2023-04-06T02:03:02;5.70;30.60
326;DHT22;150;52.352;14.058;2023-04-06T02:08:23;5.70;30.30
326;DHT22;150;52.352;14.058;2023-04-06T02:10:57;5.80;30.10
326;DHT22;150;52.352;14.058;2023-04-06T02:13:23;5.80;30.10
326;DHT22;150;52.352;14.058;2023-04-06T02:15:59;5.80;30.00
326;DHT22;150;52.352;14.058;2023-04-06T02:18:39;5.80;30.00
326;DHT22;150;52.352;14.058;2023-04-06T02:21:06;5.50;30.10
326;DHT22;150;52.352;14.058;2023-04-06T02:24:19;5.60;30.00
326;DHT22;150;52.352;14.058;2023-04-06T02:27:00;5.50;30.40
326;DHT22;150;52.352;14.058;2023-04-06T02:29:36;5.40;30.90
326;DHT22;150;52.352;14.058;2023-04-06T02:32:05;5.40;31.40
326;DHT22;150;52.352;14.058;2023-04-06T02:34:59;5.40;31.80
326;DHT22;150;52.352;14.058;2023-04-06T02:37:53;5.50;31.80
326;DHT22;150;52.352;14.058;2023-04-06T02:40:31;5.60;31.40
326;DHT22;150;52.352;14.058;2023-04-06T02:42:58;5.50;32.50
326;DHT22;150;52.352;14.058;2023-04-06T02:45:34;5.60;31.10
326;DHT22;150;52.352;14.058;2023-04-06T02:48:19;5.50;31.10
326;DHT22;150;52.352;14.058;2023-04-06T02:50:56;5.60;32.00
326;DHT22;150;52.352;14.058;2023-04-06T02:53:51;5.70;30.90
326;DHT22;150;52.352;14.058;2023-04-06T02:56:31;6.00;32.70
326;DHT22;150;52.352;14.058;2023-04-06T02:59:07;5.60;30.60
326;DHT22;150;52.352;14.058;2023-04-06T03:01:34;5.80;30.60
326;DHT22;150;52.352;14.058;2023-04-06T03:04:09;5.50;30.90
326;DHT22;150;52.352;14.058;2023-04-06T03:06:51;5.30;30.90
326;DHT22;150;52.352;14.058;2023-04-06T03:09:30;5.10;31.30
326;DHT22;150;52.352;14.058;2023-04-06T03:11:57;5.10;32.00
326;DHT22;150;52.352;14.058;2023-04-06T03:14:31;5.10;32.60
326;DHT22;150;52.352;14.058;2023-04-06T03:17:08;5.00;32.60
326;DHT22;150;52.352;14.058;2023-04-06T03:19:35;5.00;32.60
326;DHT22;150;52.352;14.058;2023-04-06T03:22:10;4.90;32.70
326;DHT22;150;52.352;14.058;2023-04-06T03:24:37;5.10;33.20
326;DHT22;150;52.352;14.058;2023-04-06T03:27:34;5.00;32.70
326;DHT22;150;52.352;14.058;2023-04-06T03:30:15;5.20;32.60
326;DHT22;150;52.352;14.058;2023-04-06T03:32:52;5.30;33.50
326;DHT22;150;52.352;14.058;2023-04-06T03:35:24;5.20;31.80
326;DHT22;150;52.352;14.058;2023-04-06T03:37:53;5.50;32.50
326;DHT22;150;52.352;14.058;2023-04-06T03:40:19;5.20;32.00
326;DHT22;150;52.352;14.058;2023-04-06T03:42:52;5.40;32.10
326;DHT22;150;52.352;14.058;2023-04-06T03:45:19;5.10;31.80
326;DHT22;150;52.352;14.058;2023-04-06T03:47:55;5.10;32.20
326;DHT22;150;52.352;14.058;2023-04-06T03:50:35;5.10;32.10
326;DHT22;150;52.352;14.058;2023-04-06T03:53:12;5.20;32.30
326;DHT22;150;52.352;14.058;2023-04-06T03:55:38;5.60;32.60
326;DHT22;150;52.352;14.058;2023-04-06T03:58:30;5.20;32.20
326;DHT22;150;52.352;14.058;2023-04-06T04:01:14;5.30;32.00
326;DHT22;150;52.352;14.058;2023-04-06T04:03:49;5.20;32.00
326;DHT22;150;52.352;14.058;2023-04-06T04:06:16;5.90;32.40
326;DHT22;150;52.352;14.058;2023-04-06T04:09:10;5.20;31.90
326;DHT22;150;52.352;14.058;2023-04-06T04:11:48;5.10;31.80
326;DHT22;150;52.352;14.058;2023-04-06T04:14:15;5.10;32.10
326;DHT22;150;52.352;14.058;2023-04-06T04:16:53;4.90;32.00
326;DHT22;150;52.352;14.058;2023-04-06T04:19:28;4.90;32.90
326;DHT22;150;52.352;14.058;2023-04-06T04:21:55;4.90;32.90
326;DHT22;150;52.352;14.058;2023-04-06T04:24:34;4.90;33.30
326;DHT22;150;52.352;14.058;2023-04-06T04:27:07;5.00;33.50
326;DHT22;150;52.352;14.058;2023-04-06T04:29:35;5.00;33.30
326;DHT22;150;52.352;14.058;2023-04-06T04:32:09;5.00;33.40
326;DHT22;150;52.352;14.058;2023-04-06T04:34:36;5.40;34.20
326;DHT22;150;52.352;14.058;2023-04-06T04:37:14;5.00;33.40
326;DHT22;150;52.352;14.058;2023-04-06T04:39:51;5.00;33.20
326;DHT22;150;52.352;14.058;2023-04-06T04:42:18;5.10;33.20
326;DHT22;150;52.352;14.058;2023-04-06T04:44:51;4.80;33.30
326;DHT22;150;52.352;14.058;2023-04-06T04:47:19;4.90;33.40
326;DHT22;150;52.352;14.058;2023-04-06T04:49:53;5.00;33.40
326;DHT22;150;52.352;14.058;2023-04-06T04:52:37;5.00;33.40
326;DHT22;150;52.352;14.058;2023-04-06T04:55:15;5.00;33.30
326;DHT22;150;52.352;14.058;2023-04-06T04:57:56;5.00;33.40
326;DHT22;150;52.352;14.058;2023-04-06T05:00:32;4.90;33.40
326;DHT22;150;52.352;14.058;2023-04-06T05:02:59;4.80;34.00
326;DHT22;150;52.352;14.058;2023-04-06T05:05:34;5.00;33.50
326;DHT22;150;52.352;14.058;2023-04-06T05:08:01;5.00;33.70
326;DHT22;150;52.352;14.058;2023-04-06T05:10:40;5.00;33.90
326;DHT22;150;52.352;14.058;2023-04-06T05:13:33;5.00;33.90
326;DHT22;150;52.352;14.058;2023-04-06T05:16:00;5.00;33.70
326;DHT22;150;52.352;14.058;2023-04-06T05:21:19;5.40;34.00
326;DHT22;150;52.352;14.058;2023-04-06T05:24:11;5.00;34.40
326;DHT22;150;52.352;14.058;2023-04-06T05:26:41;4.90;35.00
326;DHT22;150;52.352;14.058;2023-04-06T05:29:15;4.90;34.80
326;DHT22;150;52.352;14.058;2023-04-06T05:31:49;5.10;35.00
326;DHT22;150;52.352;14.058;2023-04-06T05:34:17;5.00;34.80
326;DHT22;150;52.352;14.058;2023-04-06T05:36:53;5.00;34.90
326;DHT22;150;52.352;14.058;2023-04-06T05:39:35;5.20;34.80
326;DHT22;150;52.352;14.058;2023-04-06T05:42:13;5.10;33.90
326;DHT22;150;52.352;14.058;2023-04-06T05:44:51;5.40;33.30
326;DHT22;150;52.352;14.058;2023-04-06T05:47:19;5.60;33.10
326;DHT22;150;52.352;14.058;2023-04-06T05:49:54;6.10;33.50
326;DHT22;150;52.352;14.058;2023-04-06T05:52:21;5.90;32.20
326;DHT22;150;52.352;14.058;2023-04-06T05:54:57;6.10;32.40
326;DHT22;150;52.352;14.058;2023-04-06T05:57:32;5.70;31.80
326;DHT22;150;52.352;14.058;2023-04-06T05:59:59;6.10;31.10
326;DHT22;150;52.352;14.058;2023-04-06T06:02:36;6.10;31.30
326;DHT22;150;52.352;14.058;2023-04-06T06:05:11;6.40;31.20
326;DHT22;150;52.352;14.058;2023-04-06T06:07:39;6.50;30.00
326;DHT22;150;52.352;14.058;2023-04-06T06:10:15;6.60;29.40
326;DHT22;150;52.352;14.058;2023-04-06T06:12:43;6.70;29.20
326;DHT22;150;52.352;14.058;2023-04-06T06:15:22;6.60;29.30
326;DHT22;150;52.352;14.058;2023-04-06T06:18:05;7.00;29.40
326;DHT22;150;52.352;14.058;2023-04-06T06:20:39;6.60;29.00
326;DHT22;150;52.352;14.058;2023-04-06T06:23:15;6.60;29.10
326;DHT22;150;52.352;14.058;2023-04-06T06:25:43;6.70;29.50
326;DHT22;150;52.352;14.058;2023-04-06T06:28:33;6.80;29.40
326;DHT22;150;52.352;14.058;2023-04-06T06:31:00;7.00;28.60
326;DHT22;150;52.352;14.058;2023-04-06T06:33:36;6.90;28.80
326;DHT22;150;52.352;14.058;2023-04-06T06:36:03;7.00;28.20
326;DHT22;150;52.352;14.058;2023-04-06T06:38:37;7.10;28.50
326;DHT22;150;52.352;14.058;2023-04-06T06:41:05;7.10;28.10
326;DHT22;150;52.352;14.058;2023-04-06T06:46:38;7.30;27.30
326;DHT22;150;52.352;14.058;2023-04-06T06:50:10;7.50;26.80
326;DHT22;150;52.352;14.058;2023-04-06T06:52:42;7.80;26.60
326;DHT22;150;52.352;14.058;2023-04-06T06:55:15;7.90;26.30
326;DHT22;150;52.352;14.058;2023-04-06T06:57:55;8.00;26.00
326;DHT22;150;52.352;14.058;2023-04-06T07:00:31;8.20;26.10
326;DHT22;150;52.352;14.058;2023-04-06T07:03:06;8.40;25.20
326;DHT22;150;52.352;14.058;2023-04-06T07:05:35;8.60;26.40
326;DHT22;150;52.352;14.058;2023-04-06T07:08:07;8.70;23.60
326;DHT22;150;52.352;14.058;2023-04-06T07:10:42;9.10;23.70
326;DHT22;150;52.352;14.058;2023-04-06T07:13:11;9.50;24.00
326;DHT22;150;52.352;14.058;2023-04-06T07:15:43;9.40;22.80
326;DHT22;150;52.352;14.058;2023-04-06T07:21:03;9.60;20.60
326;DHT22;150;52.352;14.058;2023-04-06T07:23:33;9.70;20.00
326;DHT22;150;52.352;14.058;2023-04-06T07:26:00;9.90;20.40
326;DHT22;150;52.352;14.058;2023-04-06T07:28:31;10.10;19.10
326;DHT22;150;52.352;14.058;2023-04-06T07:30:58;10.10;18.20
326;DHT22;150;52.352;14.058;2023-04-06T07:33:30;10.20;17.50
326;DHT22;150;52.352;14.058;2023-04-06T07:35:57;10.30;17.60
326;DHT22;150;52.352;14.058;2023-04-06T07:42:09;10.30;17.50
326;DHT22;150;52.352;14.058;2023-04-06T07:45:11;10.40;16.80
326;DHT22;150;52.352;14.058;2023-04-06T07:47:38;10.20;16.60
326;DHT22;150;52.352;14.058;2023-04-06T07:50:07;10.30;17.00
326;DHT22;150;52.352;14.058;2023-04-06T07:52:34;10.40;17.00
326;DHT22;150;52.352;14.058;2023-04-06T07:55:00;10.50;16.10
326;DHT22;150;52.352;14.058;2023-04-06T07:57:27;10.50;16.20
326;DHT22;150;52.352;14.058;2023-04-06T07:59:54;10.50;16.30
326;DHT22;150;52.352;14.058;2023-04-06T08:02:20;10.60;17.40
326;DHT22;150;52.352;14.058;2023-04-06T08:04:47;10.70;16.70
326;DHT22;150;52.352;14.058;2023-04-06T08:07:15;10.80;15.30
326;DHT22;150;52.352;14.058;2023-04-06T08:09:42;11.00;15.30
326;DHT22;150;52.352;14.058;2023-04-06T08:12:09;11.00;15.30
326;DHT22;150;52.352;14.058;2023-04-06T08:14:35;11.20;14.10
326;DHT22;150;52.352;14.058;2023-04-06T08:17:02;11.30;13.70
326;DHT22;150;52.352;14.058;2023-04-06T08:19:28;11.40;14.30
326;DHT22;150;52.352;14.058;2023-04-06T08:21:55;11.70;13.10
326;DHT22;150;52.352;14.058;2023-04-06T08:24:23;11.60;11.60
326;DHT22;150;52.352;14.058;2023-04-06T08:26:50;11.50;12.60
326;DHT22;150;52.352;14.058;2023-04-06T08:29:17;11.40;12.90
326;DHT22;150;52.352;14.058;2023-04-06T08:31:44;11.40;12.70
326;DHT22;150;52.352;14.058;2023-04-06T08:34:10;11.60;12.70
326;DHT22;150;52.352;14.058;2023-04-06T08:36:37;11.70;11.80
326;DHT22;150;52.352;14.058;2023-04-06T08:39:04;11.90;12.00
326;DHT22;150;52.352;14.058;2023-04-06T08:41:32;12.00;11.60
326;DHT22;150;52.352;14.058;2023-04-06T08:44:00;11.80;10.90
326;DHT22;150;52.352;14.058;2023-04-06T08:46:28;11.90;11.70
326;DHT22;150;52.352;14.058;2023-04-06T08:48:56;12.10;12.00
326;DHT22;150;52.352;14.058;2023-04-06T08:51:23;12.20;11.60
326;DHT22;150;52.352;14.058;2023-04-06T08:53:50;12.30;11.10
326;DHT22;150;52.352;14.058;2023-04-06T08:56:19;12.00;10.80
326;DHT22;150;52.352;14.058;2023-04-06T08:58:50;12.10;10.60
326;DHT22;150;52.352;14.058;2023-04-06T09:01:18;12.20;10.50
326;DHT22;150;52.352;14.058;2023-04-06T09:03:48;12.20;10.10
326;DHT22;150;52.352;14.058;2023-04-06T09:06:15;12.30;10.50
326;DHT22;150;52.352;14.058;2023-04-06T09:08:42;12.30;9.60
326;DHT22;150;52.352;14.058;2023-04-06T09:11:09;12.40;10.10
326;DHT22;150;52.352;14.058;2023-04-06T09:13:48;12.50;10.10
326;DHT22;150;52.352;14.058;2023-04-06T09:16:15;12.50;10.20
326;DHT22;150;52.352;14.058;2023-04-06T09:18:42;12.60;10.50
326;DHT22;150;52.352;14.058;2023-04-06T09:21:09;12.60;9.60
326;DHT22;150;52.352;14.058;2023-04-06T09:23:36;12.80;10.00
326;DHT22;150;52.352;14.058;2023-04-06T09:26:08;12.60;8.40
326;DHT22;150;52.352;14.058;2023-04-06T09:28:45;12.70;9.20
326;DHT22;150;52.352;14.058;2023-04-06T09:31:13;12.30;8.60
326;DHT22;150;52.352;14.058;2023-04-06T09:33:43;11.80;9.20
326;DHT22;150;52.352;14.058;2023-04-06T09:36:10;11.80;9.80
326;DHT22;150;52.352;14.058;2023-04-06T09:38:37;11.70;10.60
326;DHT22;150;52.352;14.058;2023-04-06T09:41:04;11.90;10.30
326;DHT22;150;52.352;14.058;2023-04-06T09:43:31;11.80;9.80
326;DHT22;150;52.352;14.058;2023-04-06T09:46:00;11.90;9.90
326;DHT22;150;52.352;14.058;2023-04-06T09:48:31;11.80;9.10
326;DHT22;150;52.352;14.058;2023-04-06T09:51:00;12.10;9.60
326;DHT22;150;52.352;14.058;2023-04-06T09:53:30;12.30;9.20
326;DHT22;150;52.352;14.058;2023-04-06T09:56:01;12.40;8.90
326;DHT22;150;52.352;14.058;2023-04-06T09:58:30;12.70;8.60
326;DHT22;150;52.352;14.058;2023-04-06T10:01:02;12.90;9.20
326;DHT22;150;52.352;14.058;2023-04-06T10:03:43;13.20;9.30
326;DHT22;150;52.352;14.058;2023-04-06T10:06:13;13.50;9.90
326;DHT22;150;52.352;14.058;2023-04-06T10:08:41;13.70;8.20
326;DHT22;150;52.352;14.058;2023-04-06T10:11:11;13.60;8.20
326;DHT22;150;52.352;14.058;2023-04-06T10:13:38;13.70;7.50
326;DHT22;150;52.352;14.058;2023-04-06T10:16:06;13.80;8.30
326;DHT22;150;52.352;14.058;2023-04-06T10:18:36;14.20;8.60
326;DHT22;150;52.352;14.058;2023-04-06T10:21:08;14.20;7.80
326;DHT22;150;52.352;14.058;2023-04-06T10:23:44;13.70;7.10
326;DHT22;150;52.352;14.058;2023-04-06T10:26:13;13.30;7.90
326;DHT22;150;52.352;14.058;2023-04-06T10:28:42;13.00;7.70
326;DHT22;150;52.352;14.058;2023-04-06T10:31:09;13.00;8.80
326;DHT22;150;52.352;14.058;2023-04-06T10:33:37;13.10;8.50
326;DHT22;150;52.352;14.058;2023-04-06T10:36:12;13.20;7.90
326;DHT22;150;52.352;14.058;2023-04-06T10:38:41;13.50;8.10
326;DHT22;150;52.352;14.058;2023-04-06T10:41:09;13.80;8.30
326;DHT22;150;52.352;14.058;2023-04-06T10:43:37;13.80;7.30
326;DHT22;150;52.352;14.058;2023-04-06T10:46:06;13.80;8.00
326;DHT22;150;52.352;14.058;2023-04-06T10:48:39;13.70;8.20
326;DHT22;150;52.352;14.058;2023-04-06T10:51:11;13.60;8.20
326;DHT22;150;52.352;14.058;2023-04-06T10:53:40;13.40;7.30
326;DHT22;150;52.352;14.058;2023-04-06T10:56:09;13.20;7.60
326;DHT22;150;52.352;14.058;2023-04-06T10:58:43;13.10;6.90
326;DHT22;150;52.352;14.058;2023-04-06T11:01:11;12.90;7.70
326;DHT22;150;52.352;14.058;2023-04-06T11:03:43;12.70;7.50
326;DHT22;150;52.352;14.058;2023-04-06T11:06:17;12.50;8.60
326;DHT22;150;52.352;14.058;2023-04-06T11:08:44;12.40;8.20
326;DHT22;150;52.352;14.058;2023-04-06T11:11:12;12.30;7.80
326;DHT22;150;52.352;14.058;2023-04-06T11:13:42;12.20;7.80
326;DHT22;150;52.352;14.058;2023-04-06T11:16:13;12.10;8.60
326;DHT22;150;52.352;14.058;2023-04-06T11:18:48;12.10;9.00
326;DHT22;150;52.352;14.058;2023-04-06T11:21:15;12.30;8.50
326;DHT22;150;52.352;14.058;2023-04-06T11:23:42;12.50;8.90
326;DHT22;150;52.352;14.058;2023-04-06T11:26:11;12.70;8.50
326;DHT22;150;52.352;14.058;2023-04-06T11:28:38;12.90;8.00
326;DHT22;150;52.352;14.058;2023-04-06T11:31:05;12.80;7.60
326;DHT22;150;52.352;14.058;2023-04-06T11:33:35;12.70;8.20
326;DHT22;150;52.352;14.058;2023-04-06T11:36:04;12.60;7.50
326;DHT22;150;52.352;14.058;2023-04-06T11:38:31;12.70;7.60
326;DHT22;150;52.352;14.058;2023-04-06T11:40:58;12.70;7.60
326;DHT22;150;52.352;14.058;2023-04-06T11:43:29;12.80;8.00
326;DHT22;150;52.352;14.058;2023-04-06T11:46:00;12.70;7.50
326;DHT22;150;52.352;14.058;2023-04-06T11:48:28;12.60;7.50
326;DHT22;150;52.352;14.058;2023-04-06T11:50:58;12.50;7.40
326;DHT22;150;52.352;14.058;2023-04-06T11:53:28;12.50;7.40
326;DHT22;150;52.352;14.058;2023-04-06T11:55:55;12.40;7.30
326;DHT22;150;52.352;14.058;2023-04-06T11:58:21;12.40;7.30
326;DHT22;150;52.352;14.058;2023-04-06T12:00:48;12.40;7.30
326;DHT22;150;52.352;14.058;2023-04-06T12:03:15;12.50;8.00
326;DHT22;150;52.352;14.058;2023-04-06T12:05:42;12.60;8.20
326;DHT22;150;52.352;14.058;2023-04-06T12:08:09;12.70;7.50
326;DHT22;150;52.352;14.058;2023-04-06T12:10:37;12.80;7.60
326;DHT22;150;52.352;14.058;2023-04-06T12:13:04;13.10;7.80
326;DHT22;150;52.352;14.058;2023-04-06T12:15:30;13.30;7.10
326;DHT22;150;52.352;14.058;2023-04-06T12:17:57;13.40;7.30
326;DHT22;150;52.352;14.058;2023-04-06T12:20:24;13.40;6.70
326;DHT22;150;52.352;14.058;2023-04-06T12:22:50;13.70;6.80
326;DHT22;150;52.352;14.058;2023-04-06T12:25:17;13.80;6.20
326;DHT22;150;52.352;14.058;2023-04-06T12:27:49;13.90;6.70
326;DHT22;150;52.352;14.058;2023-04-06T12:30:16;13.70;6.00
326;DHT22;150;52.352;14.058;2023-04-06T12:32:43;13.70;6.90
326;DHT22;150;52.352;14.058;2023-04-06T12:35:10;13.50;5.70
326;DHT22;150;52.352;14.058;2023-04-06T12:37:41;13.30;6.20
326;DHT22;150;52.352;14.058;2023-04-06T12:40:08;13.50;5.90
326;DHT22;150;52.352;14.058;2023-04-06T12:42:36;13.60;5.60
326;DHT22;150;52.352;14.058;2023-04-06T12:45:04;13.50;5.90
326;DHT22;150;52.352;14.058;2023-04-06T12:47:31;13.40;5.20
326;DHT22;150;52.352;14.058;2023-04-06T12:49:58;13.30;5.20
326;DHT22;150;52.352;14.058;2023-04-06T12:52:25;13.40;6.80
326;DHT22;150;52.352;14.058;2023-04-06T12:54:51;13.60;6.30
326;DHT22;150;52.352;14.058;2023-04-06T12:57:18;13.70;5.50
326;DHT22;150;52.352;14.058;2023-04-06T12:59:45;13.80;5.80
326;DHT22;150;52.352;14.058;2023-04-06T13:02:13;14.00;6.40
326;DHT22;150;52.352;14.058;2023-04-06T13:04:40;14.10;6.00
326;DHT22;150;52.352;14.058;2023-04-06T13:07:07;14.10;5.10
326;DHT22;150;52.352;14.058;2023-04-06T13:09:33;14.20;4.90
326;DHT22;150;52.352;14.058;2023-04-06T13:12:00;14.20;4.40
326;DHT22;150;52.352;14.058;2023-04-06T13:14:27;14.00;4.10
326;DHT22;150;52.352;14.058;2023-04-06T13:16:54;13.80;4.80
326;DHT22;150;52.352;14.058;2023-04-06T13:19:22;13.90;5.70
326;DHT22;150;52.352;14.058;2023-04-06T13:21:49;13.90;5.30
326;DHT22;150;52.352;14.058;2023-04-06T13:24:15;14.00;4.50
326;DHT22;150;52.352;14.058;2023-04-06T13:26:42;13.80;4.20
326;DHT22;150;52.352;14.058;2023-04-06T13:29:09;13.60;4.50
326;DHT22;150;52.352;14.058;2023-04-06T13:31:38;13.20;5.90
326;DHT22;150;52.352;14.058;2023-04-06T13:34:05;13.10;5.60
326;DHT22;150;52.352;14.058;2023-04-06T13:36:33;12.80;5.50
326;DHT22;150;52.352;14.058;2023-04-06T13:39:00;12.60;6.60
326;DHT22;150;52.352;14.058;2023-04-06T13:41:26;12.60;5.80
326;DHT22;150;52.352;14.058;2023-04-06T13:43:53;12.50;4.90
326;DHT22;150;52.352;14.058;2023-04-06T13:46:20;12.50;5.30
326;DHT22;150;52.352;14.058;2023-04-06T13:48:47;12.50;5.20
326;DHT22;150;52.352;14.058;2023-04-06T13:51:15;12.30;4.80
326;DHT22;150;52.352;14.058;2023-04-06T13:53:43;12.30;5.50
326;DHT22;150;52.352;14.058;2023-04-06T13:56:10;12.30;5.00
326;DHT22;150;52.352;14.058;2023-04-06T13:58:36;12.30;5.40
326;DHT22;150;52.352;14.058;2023-04-06T14:01:04;12.10;4.60
326;DHT22;150;52.352;14.058;2023-04-06T14:03:31;12.00;4.50
326;DHT22;150;52.352;14.058;2023-04-06T14:05:58;12.00;5.50
326;DHT22;150;52.352;14.058;2023-04-06T14:08:25;11.90;5.50
326;DHT22;150;52.352;14.058;2023-04-06T14:10:53;11.80;6.20
326;DHT22;150;52.352;14.058;2023-04-06T14:13:20;11.80;6.20
326;DHT22;150;52.352;14.058;2023-04-06T14:15:53;11.80;5.50
326;DHT22;150;52.352;14.058;2023-04-06T14:18:19;12.00;5.60
326;DHT22;150;52.352;14.058;2023-04-06T14:20:53;12.10;4.80
326;DHT22;150;52.352;14.058;2023-04-06T14:23:20;12.20;5.80
326;DHT22;150;52.352;14.058;2023-04-06T14:25:47;12.20;6.00
326;DHT22;150;52.352;14.058;2023-04-06T14:28:17;12.10;6.00
326;DHT22;150;52.352;14.058;2023-04-06T14:30:44;12.00;6.60
326;DHT22;150;52.352;14.058;2023-04-06T14:33:13;11.90;6.50
326;DHT22;150;52.352;14.058;2023-04-06T14:35:43;11.90;5.50
326;DHT22;150;52.352;14.058;2023-04-06T14:38:10;11.70;5.90
326;DHT22;150;52.352;14.058;2023-04-06T14:40:41;11.70;6.20
326;DHT22;150;52.352;14.058;2023-04-06T14:43:08;11.80;6.60
326;DHT22;150;52.352;14.058;2023-04-06T14:45:44;12.00;7.10
326;DHT22;150;52.352;14.058;2023-04-06T14:48:11;12.30;5.60
326;DHT22;150;52.352;14.058;2023-04-06T14:50:38;12.60;5.30
326;DHT22;150;52.352;14.058;2023-04-06T14:53:05;12.90;6.00
326;DHT22;150;52.352;14.058;2023-04-06T14:55:32;13.00;4.50
326;DHT22;150;52.352;14.058;2023-04-06T14:57:59;13.00;4.80
326;DHT22;150;52.352;14.058;2023-04-06T15:00:26;13.00;4.50
326;DHT22;150;52.352;14.058;2023-04-06T15:02:54;12.90;4.70
326;DHT22;150;52.352;14.058;2023-04-06T15:05:20;13.00;4.30
326;DHT22;150;52.352;14.058;2023-04-06T15:07:47;13.00;4.70
326;DHT22;150;52.352;14.058;2023-04-06T15:10:14;13.00;4.80
326;DHT22;150;52.352;14.058;2023-04-06T15:12:40;12.90;3.60
326;DHT22;150;52.352;14.058;2023-04-06T15:15:08;12.90;4.40
326;DHT22;150;52.352;14.058;2023-04-06T15:17:44;13.00;4.50
326;DHT22;150;52.352;14.058;2023-04-06T15:23:20;13.20;4.00
326;DHT22;150;52.352;14.058;2023-04-06T15:25:47;13.10;3.10
326;DHT22;150;52.352;14.058;2023-04-06T15:28:16;13.20;3.80
326;DHT22;150;52.352;14.058;2023-04-06T15:30:43;12.90;4.40
326;DHT22;150;52.352;14.058;2023-04-06T15:33:10;12.80;4.70
326;DHT22;150;52.352;14.058;2023-04-06T15:35:37;12.70;4.80
326;DHT22;150;52.352;14.058;2023-04-06T15:38:05;12.60;5.40
326;DHT22;150;52.352;14.058;2023-04-06T15:40:34;12.50;5.80
326;DHT22;150;52.352;14.058;2023-04-06T15:43:01;12.40;5.60
326;DHT22;150;52.352;14.058;2023-04-06T15:45:28;12.30;5.70
326;DHT22;150;52.352;14.058;2023-04-06T15:47:54;12.40;5.30
326;DHT22;150;52.352;14.058;2023-04-06T15:50:21;12.40;5.10
326;DHT22;150;52.352;14.058;2023-04-06T15:52:50;12.30;5.50
326;DHT22;150;52.352;14.058;2023-04-06T15:55:17;12.10;5.50
326;DHT22;150;52.352;14.058;2023-04-06T15:57:45;12.10;5.40
326;DHT22;150;52.352;14.058;2023-04-06T16:00:12;12.00;5.90
326;DHT22;150;52.352;14.058;2023-04-06T16:02:40;11.90;5.90
326;DHT22;150;52.352;14.058;2023-04-06T16:05:08;12.00;6.30
326;DHT22;150;52.352;14.058;2023-04-06T16:07:35;11.80;5.80
326;DHT22;150;52.352;14.058;2023-04-06T16:10:03;11.70;6.30
326;DHT22;150;52.352;14.058;2023-04-06T16:12:31;11.60;6.10
326;DHT22;150;52.352;14.058;2023-04-06T16:14:59;11.70;5.90
326;DHT22;150;52.352;14.058;2023-04-06T16:17:26;11.70;5.70
326;DHT22;150;52.352;14.058;2023-04-06T16:19:53;11.70;5.80
326;DHT22;150;52.352;14.058;2023-04-06T16:22:20;11.70;5.70
326;DHT22;150;52.352;14.058;2023-04-06T16:24:47;11.80;6.50
326;DHT22;150;52.352;14.058;2023-04-06T16:27:14;11.70;5.60
326;DHT22;150;52.352;14.058;2023-04-06T16:29:41;11.70;6.10
326;DHT22;150;52.352;14.058;2023-04-06T16:32:09;11.70;5.70
326;DHT22;150;52.352;14.058;2023-04-06T16:34:36;11.70;6.60
326;DHT22;150;52.352;14.058;2023-04-06T16:37:03;11.80;5.60
326;DHT22;150;52.352;14.058;2023-04-06T16:39:29;11.70;5.50
326;DHT22;150;52.352;14.058;2023-04-06T16:41:56;11.70;6.10
326;DHT22;150;52.352;14.058;2023-04-06T16:44:23;11.70;6.30
326;DHT22;150;52.352;14.058;2023-04-06T16:46:49;11.60;5.70
326;DHT22;150;52.352;14.058;2023-04-06T16:49:18;11.60;5.80
326;DHT22;150;52.352;14.058;2023-04-06T16:51:45;11.50;5.90
326;DHT22;150;52.352;14.058;2023-04-06T16:54:14;11.60;5.60
326;DHT22;150;52.352;14.058;2023-04-06T16:56:40;11.60;5.90
326;DHT22;150;52.352;14.058;2023-04-06T16:59:07;11.50;6.10
326;DHT22;150;52.352;14.058;2023-04-06T17:01:34;11.50;6.30
326;DHT22;150;52.352;14.058;2023-04-06T17:04:01;11.50;6.00
326;DHT22;150;52.352;14.058;2023-04-06T17:06:29;11.40;5.90
326;DHT22;150;52.352;14.058;2023-04-06T17:08:56;11.40;6.00
326;DHT22;150;52.352;14.058;2023-04-06T17:11:24;11.30;6.60
326;DHT22;150;52.352;14.058;2023-04-06T17:13:50;11.30;6.60